createdAt,value
2022-10-09T00:01:06.631Z,1.70
2022-10-09T00:03:34.720Z,1.60
2022-10-09T00:06:02.198Z,2.00
2022-10-09T00:08:29.502Z,1.75
2022-10-09T00:10:56.760Z,1.70
2022-10-09T00:13:24.089Z,1.73
2022-10-09T00:15:51.159Z,1.83
2022-10-09T00:18:18.929Z,1.80
2022-10-09T00:20:47.146Z,1.77
2022-10-09T00:23:16.671Z,1.83
2022-10-09T00:25:55.808Z,1.70
2022-10-09T00:28:24.260Z,1.63
2022-10-09T00:30:51.588Z,1.48
2022-10-09T00:33:19.978Z,1.88
2022-10-09T00:35:48.270Z,2.10
2022-10-09T00:38:15.543Z,1.67
2022-10-09T00:40:42.565Z,1.90
2022-10-09T00:43:19.144Z,1.60
2022-10-09T00:45:54.907Z,1.60
2022-10-09T00:48:23.579Z,1.70
2022-10-09T00:50:55.371Z,1.70
2022-10-09T00:53:24.627Z,1.73
2022-10-09T00:55:52.450Z,1.95
2022-10-09T00:58:20.198Z,1.65
2022-10-09T01:00:47.289Z,1.80
2022-10-09T01:03:14.342Z,1.80
2022-10-09T01:05:59.621Z,1.90
2022-10-09T01:08:47.421Z,2.03
2022-10-09T01:11:29.523Z,1.92
2022-10-09T01:14:16.900Z,1.85
2022-10-09T01:17:13.584Z,1.70
2022-10-09T01:20:33.199Z,2.00
2022-10-09T01:23:18.890Z,1.75
2022-10-09T01:26:09.046Z,1.88
2022-10-09T01:28:38.528Z,2.60
2022-10-09T01:31:08.904Z,1.83
2022-10-09T01:33:37.300Z,1.60
2022-10-09T01:36:07.206Z,1.55
2022-10-09T01:38:36.056Z,2.00
2022-10-09T01:41:06.269Z,1.83
2022-10-09T01:43:33.219Z,2.13
2022-10-09T01:46:19.044Z,2.00
2022-10-09T01:49:07.059Z,1.60
2022-10-09T01:51:48.697Z,1.83
2022-10-09T01:54:23.431Z,2.00
2022-10-09T01:56:55.423Z,1.58
2022-10-09T01:59:26.426Z,1.50
2022-10-09T02:01:54.173Z,1.75
2022-10-09T02:04:22.169Z,2.10
2022-10-09T02:06:49.366Z,1.83
2022-10-09T02:09:17.920Z,2.47
2022-10-09T02:11:51.548Z,1.83
2022-10-09T02:14:18.882Z,2.38
2022-10-09T02:16:51.017Z,1.70
2022-10-09T02:19:25.803Z,1.88
2022-10-09T02:22:00.852Z,2.37
2022-10-09T02:24:28.689Z,1.90
2022-10-09T02:26:57.516Z,2.33
2022-10-09T02:29:25.053Z,2.17
2022-10-09T02:31:52.182Z,2.15
2022-10-09T02:34:20.996Z,2.08
2022-10-09T02:36:48.432Z,2.08
2022-10-09T02:39:15.766Z,2.22
2022-10-09T02:41:42.782Z,2.03
2022-10-09T02:44:10.306Z,1.98
2022-10-09T02:46:38.605Z,2.10
2022-10-09T02:49:06.949Z,1.95
2022-10-09T02:51:34.426Z,2.28
2022-10-09T02:54:01.443Z,1.92
2022-10-09T02:56:28.730Z,2.03
2022-10-09T02:58:56.140Z,2.03
2022-10-09T03:01:24.140Z,2.30
2022-10-09T03:03:52.152Z,2.10
2022-10-09T03:06:23.281Z,1.80
2022-10-09T03:08:51.345Z,1.80
2022-10-09T03:11:19.896Z,1.90
2022-10-09T03:13:47.347Z,1.90
2022-10-09T03:16:24.873Z,2.00
2022-10-09T03:18:52.792Z,2.40
2022-10-09T03:21:23.346Z,1.90
2022-10-09T03:23:52.489Z,1.95
2022-10-09T03:26:23.013Z,1.77
2022-10-09T03:28:52.599Z,2.05
2022-10-09T03:31:49.943Z,2.20
2022-10-09T03:34:10.288Z,1.98
2022-10-09T03:36:37.188Z,1.83
2022-10-09T03:39:04.363Z,2.35
2022-10-09T03:41:33.118Z,1.85
2022-10-09T03:44:00.343Z,2.13
2022-10-09T03:46:27.344Z,1.80
2022-10-09T03:48:54.542Z,2.00
2022-10-09T03:51:21.437Z,2.17
2022-10-09T03:53:48.463Z,2.10
2022-10-09T03:56:15.584Z,1.83
2022-10-09T03:58:42.566Z,1.92
2022-10-09T04:01:09.897Z,2.50
2022-10-09T04:03:36.852Z,1.98
2022-10-09T04:06:04.077Z,2.25
2022-10-09T04:08:31.442Z,2.33
2022-10-09T04:11:02.217Z,2.50
2022-10-09T04:13:29.227Z,2.47
2022-10-09T04:15:57.179Z,2.28
2022-10-09T04:18:25.687Z,2.45
2022-10-09T04:20:55.565Z,2.67
2022-10-09T04:23:25.864Z,2.45
2022-10-09T04:26:01.193Z,2.50
2022-10-09T04:28:29.971Z,3.00
2022-10-09T04:30:57.927Z,2.42
2022-10-09T04:33:26.610Z,2.50
2022-10-09T04:35:54.842Z,2.70
2022-10-09T04:38:22.803Z,2.50
2022-10-09T04:40:57.782Z,2.58
2022-10-09T04:43:25.458Z,2.47
2022-10-09T04:45:52.777Z,2.45
2022-10-09T04:48:20.194Z,2.90
2022-10-09T04:50:47.801Z,2.58
2022-10-09T04:53:15.144Z,2.38
2022-10-09T04:55:43.499Z,2.60
2022-10-09T04:58:11.773Z,2.17
2022-10-09T05:00:46.462Z,2.50
2022-10-09T05:03:13.877Z,2.45
2022-10-09T05:05:40.928Z,2.08
2022-10-09T05:08:07.991Z,2.33
2022-10-09T05:10:35.176Z,2.53
2022-10-09T05:13:02.144Z,2.30
2022-10-09T05:15:29.429Z,2.40
2022-10-09T05:17:56.554Z,2.38
2022-10-09T05:20:23.473Z,2.50
2022-10-09T05:22:50.913Z,2.67
2022-10-09T05:25:18.349Z,2.33
2022-10-09T05:27:45.433Z,2.50
2022-10-09T05:30:13.114Z,2.17
2022-10-09T05:32:40.497Z,2.60
2022-10-09T05:35:08.676Z,2.50
2022-10-09T05:37:35.990Z,2.10
2022-10-09T05:40:02.916Z,2.08
2022-10-09T05:42:30.887Z,2.30
2022-10-09T05:44:58.874Z,2.38
2022-10-09T05:47:27.181Z,2.10
2022-10-09T05:49:54.187Z,2.20
2022-10-09T05:52:21.112Z,2.17
2022-10-09T05:54:48.270Z,2.80
2022-10-09T05:57:15.263Z,2.78
2022-10-09T05:59:42.346Z,3.08
2022-10-09T06:02:09.477Z,2.97
2022-10-09T06:04:37.647Z,3.40
2022-10-09T06:07:05.701Z,3.00
2022-10-09T06:09:33.670Z,3.15
2022-10-09T06:12:00.724Z,2.50
2022-10-09T06:14:27.724Z,2.97
2022-10-09T06:16:54.946Z,2.63
2022-10-09T06:19:23.020Z,2.70
2022-10-09T06:21:50.707Z,3.58
2022-10-09T06:24:28.375Z,3.45
2022-10-09T06:26:56.483Z,3.63
2022-10-09T06:29:23.535Z,2.88
2022-10-09T06:31:50.660Z,2.90
2022-10-09T06:34:18.819Z,2.75
2022-10-09T06:36:45.749Z,3.20
2022-10-09T06:39:12.847Z,2.83
2022-10-09T06:41:40.090Z,2.70
2022-10-09T06:44:45.762Z,2.50
2022-10-09T06:47:14.152Z,2.95
2022-10-09T06:49:41.093Z,2.95
2022-10-09T06:52:08.047Z,3.13
2022-10-09T06:54:35.915Z,3.92
2022-10-09T06:57:03.001Z,4.05
2022-10-09T06:59:30.037Z,2.85
2022-10-09T07:01:57.256Z,2.55
2022-10-09T07:04:24.332Z,2.60
2022-10-09T07:06:51.375Z,2.42
2022-10-09T07:09:18.548Z,2.50
2022-10-09T07:11:49.371Z,2.70
2022-10-09T07:14:17.115Z,2.58
2022-10-09T07:16:47.407Z,2.30
2022-10-09T07:19:16.221Z,2.22
2022-10-09T07:21:45.742Z,2.20
2022-10-09T07:24:13.743Z,2.50
2022-10-09T07:26:43.756Z,2.53
2022-10-09T07:29:12.715Z,2.47
2022-10-09T07:31:39.867Z,2.42
2022-10-09T07:34:06.892Z,2.58
2022-10-09T07:36:34.116Z,2.40
2022-10-09T07:39:01.605Z,2.55
2022-10-09T07:41:30.217Z,2.28
2022-10-09T07:43:57.979Z,2.50
2022-10-09T07:46:30.766Z,2.25
2022-10-09T07:51:29.360Z,1.85
2022-10-09T07:53:57.519Z,2.30
2022-10-09T07:56:30.033Z,1.98
2022-10-09T07:59:05.887Z,2.53
2022-10-09T08:01:34.785Z,1.83
2022-10-09T08:04:01.944Z,2.10
2022-10-09T08:06:29.506Z,1.83
2022-10-09T08:08:58.383Z,1.77
2022-10-09T08:11:27.936Z,1.95
2022-10-09T08:13:55.433Z,1.90
2022-10-09T08:16:25.146Z,1.88
2022-10-09T08:19:00.402Z,3.83
2022-10-09T08:21:33.023Z,2.38
2022-10-09T08:24:00.722Z,2.10
2022-10-09T08:26:30.692Z,1.95
2022-10-09T08:29:00.349Z,1.73
2022-10-09T08:31:28.485Z,1.63
2022-10-09T08:33:57.535Z,2.40
2022-10-09T08:36:25.724Z,2.10
2022-10-09T08:38:53.041Z,2.03
2022-10-09T08:41:29.039Z,2.10
2022-10-09T08:44:12.946Z,1.92
2022-10-09T08:47:26.512Z,2.08
2022-10-09T08:50:09.027Z,2.60
2022-10-09T08:53:00.983Z,2.78
2022-10-09T08:55:55.137Z,2.47
2022-10-09T08:58:25.332Z,2.03
2022-10-09T09:00:53.547Z,2.50
2022-10-09T09:03:31.711Z,2.55
2022-10-09T09:06:15.714Z,2.03
2022-10-09T09:09:05.902Z,2.00
2022-10-09T09:11:49.542Z,1.90
2022-10-09T09:14:38.436Z,1.85
2022-10-09T09:17:11.418Z,2.10
2022-10-09T09:20:11.300Z,2.00
2022-10-09T09:22:42.251Z,2.00
2022-10-09T09:25:39.114Z,2.10
2022-10-09T09:28:20.397Z,1.70
2022-10-09T09:30:52.107Z,1.77
2022-10-09T09:33:44.658Z,2.03
2022-10-09T09:36:55.543Z,2.22
2022-10-09T09:42:20.706Z,2.10
2022-10-09T09:45:05.312Z,2.00
2022-10-09T09:47:42.346Z,1.80
2022-10-09T09:50:28.517Z,1.80
2022-10-09T09:53:00.670Z,1.73
2022-10-09T09:55:31.019Z,1.98
2022-10-09T09:58:07.786Z,2.00
2022-10-09T10:00:35.836Z,2.03
2022-10-09T10:03:17.980Z,2.60
2022-10-09T10:05:45.793Z,2.03
2022-10-09T10:08:32.345Z,1.83
2022-10-09T10:11:07.328Z,2.92
2022-10-09T10:16:09.428Z,1.80
2022-10-09T10:18:43.569Z,1.65
2022-10-09T10:21:17.490Z,1.75
2022-10-09T10:23:56.660Z,1.52
2022-10-09T10:26:29.739Z,1.70
2022-10-09T10:29:03.781Z,1.30
2022-10-09T10:31:52.674Z,1.42
2022-10-09T10:34:44.675Z,1.60
2022-10-09T10:37:14.948Z,2.03
2022-10-09T10:40:01.377Z,1.67
2022-10-09T10:42:41.271Z,1.67
2022-10-09T10:45:42.749Z,1.40
2022-10-09T10:48:24.630Z,1.42
2022-10-09T10:51:05.045Z,1.30
2022-10-09T10:54:06.102Z,1.40
2022-10-09T10:56:42.707Z,1.20
2022-10-09T10:59:18.990Z,1.48
2022-10-09T11:02:00.094Z,1.40
2022-10-09T11:04:44.682Z,1.25
2022-10-09T11:07:39.558Z,1.10
2022-10-09T11:10:18.559Z,1.30
2022-10-09T11:12:58.640Z,1.42
2022-10-09T11:15:27.006Z,0.90
2022-10-09T11:18:15.782Z,1.25
2022-10-09T11:21:09.413Z,0.98
2022-10-09T11:24:07.542Z,1.30
2022-10-09T11:27:05.499Z,1.15
2022-10-09T11:29:59.138Z,1.67
2022-10-09T11:32:38.131Z,1.30
2022-10-09T11:35:18.622Z,1.08
2022-10-09T11:37:53.946Z,1.25
2022-10-09T11:40:28.013Z,1.88
2022-10-09T11:43:09.503Z,1.20
2022-10-09T11:46:05.193Z,1.20
2022-10-09T11:48:45.605Z,1.48
2022-10-09T11:51:23.237Z,1.10
2022-10-09T11:53:52.197Z,1.30
2022-10-09T11:56:28.302Z,1.38
2022-10-09T11:59:05.572Z,1.20
2022-10-09T12:01:44.775Z,1.50
2022-10-09T12:04:20.817Z,1.08
2022-10-09T12:07:07.301Z,1.00
2022-10-09T12:09:43.548Z,1.15
2022-10-09T12:12:16.822Z,1.38
2022-10-09T12:14:47.583Z,1.50
2022-10-09T12:17:35.190Z,1.17
2022-10-09T12:20:21.821Z,1.10
2022-10-09T12:23:25.126Z,0.82
2022-10-09T12:25:50.215Z,1.38
2022-10-09T12:28:43.306Z,1.13
2022-10-09T12:31:38.579Z,1.23
2022-10-09T12:34:13.521Z,1.20
2022-10-09T12:36:40.647Z,1.33
2022-10-09T12:39:22.668Z,1.00
2022-10-09T12:41:54.643Z,1.10
2022-10-09T12:44:30.404Z,0.95
2022-10-09T12:47:08.374Z,1.00
2022-10-09T12:49:37.984Z,1.13
2022-10-09T12:52:15.371Z,1.23
2022-10-09T12:54:44.697Z,1.30
2022-10-09T12:57:15.695Z,1.13
2022-10-09T12:59:45.713Z,0.88
2022-10-09T13:02:17.186Z,0.73
2022-10-09T13:04:57.530Z,0.90
2022-10-09T13:07:27.825Z,1.00
2022-10-09T13:10:05.227Z,1.23
2022-10-09T13:12:34.145Z,0.82
2022-10-09T13:15:27.304Z,1.02
2022-10-09T13:17:54.443Z,1.13
2022-10-09T13:20:33.592Z,0.90
2022-10-09T13:23:05.925Z,0.95
2022-10-09T13:25:39.441Z,1.15
2022-10-09T13:28:06.875Z,0.93
2022-10-09T13:30:34.493Z,0.90
2022-10-09T13:33:01.561Z,0.75
2022-10-09T13:35:28.560Z,0.85
2022-10-09T13:37:56.605Z,1.40
2022-10-09T13:40:23.795Z,1.17
2022-10-09T13:42:56.223Z,1.10
2022-10-09T13:45:24.294Z,1.00
2022-10-09T13:47:51.877Z,0.85
2022-10-09T13:50:19.867Z,0.90
2022-10-09T13:52:47.178Z,0.90
2022-10-09T13:55:14.723Z,1.00
2022-10-09T13:57:41.897Z,0.95
2022-10-09T14:00:09.466Z,0.90
2022-10-09T14:02:42.207Z,1.05
2022-10-09T14:05:10.463Z,1.10
2022-10-09T14:07:37.916Z,1.17
2022-10-09T14:10:05.838Z,1.00
2022-10-09T14:12:32.895Z,0.90
2022-10-09T14:14:59.953Z,0.77
2022-10-09T14:17:27.946Z,1.00
2022-10-09T14:19:56.191Z,0.65
2022-10-09T14:22:23.525Z,1.15
2022-10-09T14:24:50.631Z,0.90
2022-10-09T14:27:17.648Z,0.82
2022-10-09T14:29:44.695Z,0.95
2022-10-09T14:32:11.728Z,0.85
2022-10-09T14:34:40.418Z,0.70
2022-10-09T14:37:18.788Z,0.98
2022-10-09T14:39:52.668Z,1.05
2022-10-09T14:42:19.772Z,0.57
2022-10-09T14:44:46.759Z,0.80
2022-10-09T14:47:13.777Z,0.70
2022-10-09T14:49:41.346Z,0.95
2022-10-09T14:52:08.477Z,0.88
2022-10-09T14:54:35.424Z,1.05
2022-10-09T14:57:02.673Z,0.93
2022-10-09T14:59:34.154Z,0.93
2022-10-09T15:02:07.234Z,0.80
2022-10-09T15:04:34.670Z,1.00
2022-10-09T15:07:01.692Z,0.70
2022-10-09T15:09:28.594Z,1.10
2022-10-09T15:11:56.456Z,0.68
2022-10-09T15:14:23.699Z,0.95
2022-10-09T15:16:50.970Z,0.90
2022-10-09T15:19:19.218Z,0.70
2022-10-09T15:21:46.454Z,0.65
2022-10-09T15:24:14.248Z,1.08
2022-10-09T15:26:42.072Z,0.90
2022-10-09T15:29:10.194Z,0.93
2022-10-09T15:31:40.296Z,0.70
2022-10-09T15:34:08.430Z,0.90
2022-10-09T15:36:38.437Z,0.90
2022-10-09T15:39:07.921Z,0.73
2022-10-09T15:41:37.338Z,0.90
2022-10-09T15:44:13.653Z,1.02
2022-10-09T15:46:40.591Z,6.25
2022-10-09T15:49:08.745Z,5.78
2022-10-09T15:51:36.337Z,11.02
2022-10-09T15:54:03.864Z,14.45
2022-10-09T15:56:35.980Z,9.20
2022-10-09T15:59:06.172Z,4.00
2022-10-09T16:01:33.421Z,1.90
2022-10-09T16:04:00.681Z,1.70
2022-10-09T16:06:27.645Z,1.33
2022-10-09T16:08:59.370Z,1.60
2022-10-09T16:11:27.159Z,1.60
2022-10-09T16:13:55.581Z,1.45
2022-10-09T16:16:34.084Z,1.95
2022-10-09T16:19:04.189Z,1.70
2022-10-09T16:21:31.457Z,2.10
2022-10-09T16:24:00.181Z,1.80
2022-10-09T16:26:29.930Z,2.22
2022-10-09T16:28:58.901Z,1.60
2022-10-09T16:31:31.194Z,1.88
2022-10-09T16:33:58.986Z,2.28
2022-10-09T16:36:26.201Z,7.32
2022-10-09T16:38:53.260Z,5.80
2022-10-09T16:41:23.307Z,2.70
2022-10-09T16:43:53.169Z,2.10
2022-10-09T16:46:29.366Z,1.38
2022-10-09T16:48:57.947Z,1.40
2022-10-09T16:51:27.648Z,1.42
2022-10-09T16:53:56.861Z,1.30
2022-10-09T16:56:26.997Z,1.30
2022-10-09T16:58:56.773Z,1.40
2022-10-09T17:01:24.822Z,1.55
2022-10-09T17:03:54.329Z,1.20
2022-10-09T17:06:23.865Z,1.48
2022-10-09T17:08:53.173Z,1.50
2022-10-09T17:11:21.324Z,1.40
2022-10-09T17:13:48.647Z,1.40
2022-10-09T17:16:19.714Z,1.55
2022-10-09T17:18:48.347Z,1.60
2022-10-09T17:21:17.692Z,1.60
2022-10-09T17:23:45.529Z,1.85
2022-10-09T17:26:18.542Z,2.35
2022-10-09T17:28:47.339Z,2.72
2022-10-09T17:31:17.809Z,2.30
2022-10-09T17:33:46.163Z,2.50
2022-10-09T17:36:15.706Z,2.92
2022-10-09T17:38:44.094Z,2.88
2022-10-09T17:41:14.499Z,2.00
2022-10-09T17:43:42.186Z,2.13
2022-10-09T17:46:09.653Z,2.20
2022-10-09T17:48:44.012Z,1.80
2022-10-09T17:51:16.507Z,2.17
2022-10-09T17:53:45.031Z,1.90
2022-10-09T17:56:12.293Z,1.60
2022-10-09T17:58:40.071Z,2.25
2022-10-09T18:01:09.597Z,1.90
2022-10-09T18:03:37.523Z,1.50
2022-10-09T18:06:07.827Z,1.48
2022-10-09T18:08:36.082Z,1.35
2022-10-09T18:11:08.580Z,1.23
2022-10-09T18:13:38.374Z,1.27
2022-10-09T18:16:11.018Z,1.45
2022-10-09T18:18:38.384Z,1.30
2022-10-09T18:21:08.975Z,1.20
2022-10-09T18:23:37.184Z,1.30
2022-10-09T18:26:16.457Z,1.30
2022-10-09T18:28:47.517Z,1.60
2022-10-09T18:31:21.659Z,1.65
2022-10-09T18:33:48.800Z,1.67
2022-10-09T18:36:19.898Z,1.55
2022-10-09T18:38:55.653Z,1.45
2022-10-09T18:41:24.114Z,1.38
2022-10-09T18:43:52.333Z,1.48
2022-10-09T18:46:25.846Z,1.55
2022-10-09T18:48:54.584Z,1.17
2022-10-09T18:51:23.766Z,1.50
2022-10-09T18:53:54.219Z,1.63
2022-10-09T18:56:24.723Z,1.60
2022-10-09T18:58:53.275Z,1.52
2022-10-09T19:01:20.478Z,1.40
2022-10-09T19:03:50.159Z,1.88
2022-10-09T19:06:19.244Z,1.40
2022-10-09T19:08:46.785Z,1.60
2022-10-09T19:11:14.685Z,3.03
2022-10-09T19:13:44.198Z,1.73
2022-10-09T19:16:11.672Z,1.80
2022-10-09T19:18:39.510Z,2.05
2022-10-09T19:21:08.200Z,2.40
2022-10-09T19:23:35.458Z,1.83
2022-10-09T19:26:03.153Z,2.20
2022-10-09T19:28:31.436Z,2.10
2022-10-09T19:31:02.678Z,2.38
2022-10-09T19:33:30.139Z,2.38
2022-10-09T19:35:57.551Z,2.40
2022-10-09T19:38:26.276Z,2.03
2022-10-09T19:40:54.388Z,2.05
2022-10-09T19:43:21.884Z,1.65
2022-10-09T19:45:50.745Z,1.60
2022-10-09T19:48:18.367Z,1.40
2022-10-09T19:50:46.788Z,1.60
2022-10-09T19:53:14.291Z,2.10
2022-10-09T19:55:41.342Z,2.60
2022-10-09T19:58:08.690Z,3.03
2022-10-09T20:00:42.199Z,3.35
2022-10-09T20:03:09.650Z,3.00
2022-10-09T20:05:37.129Z,2.80
2022-10-09T20:08:04.185Z,2.88
2022-10-09T20:10:31.548Z,2.10
2022-10-09T20:12:59.296Z,1.90
2022-10-09T20:15:26.631Z,1.80
2022-10-09T20:17:55.109Z,1.70
2022-10-09T20:20:22.496Z,1.80
2022-10-09T20:22:49.712Z,2.00
2022-10-09T20:25:18.246Z,1.55
2022-10-09T20:27:45.205Z,1.33
2022-10-09T20:30:12.827Z,1.98
2022-10-09T20:32:39.930Z,2.38
2022-10-09T20:35:07.426Z,1.85
2022-10-09T20:37:36.040Z,2.13
2022-10-09T20:40:04.276Z,2.47
2022-10-09T20:42:32.033Z,2.30
2022-10-09T20:44:59.984Z,1.70
2022-10-09T20:47:28.275Z,1.58
2022-10-09T20:49:56.186Z,2.17
2022-10-09T20:52:23.274Z,1.77
2022-10-09T20:54:50.244Z,1.27
2022-10-09T20:57:17.391Z,1.58
2022-10-09T20:59:44.410Z,1.67
2022-10-09T21:02:15.400Z,1.55
2022-10-09T21:04:42.792Z,1.65
2022-10-09T21:07:10.517Z,1.75
2022-10-09T21:09:37.630Z,1.60
2022-10-09T21:12:04.919Z,1.60
2022-10-09T21:14:31.929Z,1.60
2022-10-09T21:16:59.772Z,1.60
2022-10-09T21:19:27.463Z,1.55
2022-10-09T21:21:54.576Z,1.70
2022-10-09T21:24:21.657Z,1.95
2022-10-09T21:26:48.709Z,1.48
2022-10-09T21:29:15.857Z,1.85
2022-10-09T21:31:43.140Z,1.98
2022-10-09T21:34:10.263Z,1.70
2022-10-09T21:36:51.130Z,1.98
2022-10-09T21:39:28.199Z,1.98
2022-10-09T21:41:55.851Z,1.80
2022-10-09T21:44:22.873Z,1.98
2022-10-09T21:46:49.910Z,2.08
2022-10-09T21:49:23.213Z,1.63
2022-10-09T21:51:50.762Z,2.00
2022-10-09T21:54:18.074Z,2.45
2022-10-09T21:56:45.111Z,2.10
2022-10-09T21:59:12.661Z,2.10
2022-10-09T22:01:39.802Z,2.20
2022-10-09T22:04:06.812Z,2.00
2022-10-09T22:06:33.732Z,1.73
2022-10-09T22:09:00.689Z,2.20
2022-10-09T22:11:27.703Z,1.70
2022-10-09T22:13:57.770Z,2.20
2022-10-09T22:16:24.808Z,2.00
2022-10-09T22:18:52.507Z,2.00
2022-10-09T22:21:20.216Z,2.08
2022-10-09T22:23:47.237Z,1.92
2022-10-09T22:26:17.493Z,1.80
2022-10-09T22:28:45.540Z,2.17
2022-10-09T22:31:26.582Z,1.80
2022-10-09T22:34:01.407Z,2.22
2022-10-09T22:36:30.810Z,2.00
2022-10-09T22:39:00.501Z,2.10
2022-10-09T22:41:31.536Z,2.15
2022-10-09T22:43:59.733Z,2.00
2022-10-09T22:46:34.473Z,2.10
2022-10-09T22:49:01.873Z,2.17
2022-10-09T22:51:29.833Z,1.80
2022-10-09T22:53:58.596Z,2.15
2022-10-09T22:56:32.058Z,2.10
2022-10-09T22:59:00.825Z,1.85
2022-10-09T23:01:53.625Z,1.80
2022-10-09T23:04:22.794Z,1.95
2022-10-09T23:06:54.724Z,1.95
2022-10-09T23:09:23.702Z,1.90
2022-10-09T23:11:51.094Z,1.88
2022-10-09T23:14:20.282Z,2.10
2022-10-09T23:16:48.311Z,1.73
2022-10-09T23:19:16.218Z,2.30
2022-10-09T23:21:45.630Z,1.63
2022-10-09T23:24:18.052Z,2.03
2022-10-09T23:26:46.537Z,1.90
2022-10-09T23:29:18.699Z,2.03
2022-10-09T23:31:46.243Z,1.80
2022-10-09T23:34:14.010Z,2.10
2022-10-09T23:36:41.381Z,2.13
2022-10-09T23:39:08.964Z,1.98
2022-10-09T23:41:36.516Z,2.15
2022-10-09T23:44:04.077Z,2.47
2022-10-09T23:46:37.755Z,2.40
2022-10-09T23:49:05.463Z,2.17
2022-10-09T23:51:34.029Z,2.00
2022-10-09T23:54:00.947Z,2.10
2022-10-09T23:56:34.329Z,2.00
2022-10-09T23:59:06.087Z,1.90
